createdAt,value
2019-05-22T00:01:25.653Z,77.37
2019-05-22T00:04:00.964Z,87.77
2019-05-22T00:06:36.845Z,90.80
2019-05-22T00:09:11.059Z,73.70
2019-05-22T00:11:44.448Z,67.57
2019-05-22T00:14:15.774Z,58.27
2019-05-22T00:16:47.106Z,66.77
2019-05-22T00:19:18.949Z,63.93
2019-05-22T00:21:51.444Z,66.53
2019-05-22T00:24:25.465Z,54.67
2019-05-22T00:26:55.819Z,66.50
2019-05-22T00:29:25.449Z,66.70
2019-05-22T00:31:56.280Z,70.70
2019-05-22T00:34:26.512Z,58.03
2019-05-22T00:36:59.042Z,63.53
2019-05-22T00:39:30.873Z,56.93
2019-05-22T00:42:01.180Z,67.47
2019-05-22T00:44:35.217Z,54.23
2019-05-22T00:47:14.157Z,55.40
2019-05-22T00:49:46.627Z,46.10
2019-05-22T00:52:42.872Z,46.10
2019-05-22T00:55:30.022Z,55.57
2019-05-22T00:58:11.328Z,61.00
2019-05-22T01:00:50.833Z,44.07
2019-05-22T01:03:24.735Z,69.10
2019-05-22T01:05:55.082Z,54.90
2019-05-22T01:08:28.470Z,43.33
2019-05-22T01:11:00.627Z,46.40
2019-05-22T01:13:33.167Z,38.70
2019-05-22T01:16:03.252Z,31.80
2019-05-22T01:18:33.034Z,30.47
2019-05-22T01:21:04.741Z,68.40
2019-05-22T01:23:39.099Z,45.37
2019-05-22T01:26:11.519Z,39.33
2019-05-22T01:28:41.061Z,43.30
2019-05-22T01:31:15.594Z,34.57
2019-05-22T01:33:54.745Z,36.83
2019-05-22T01:36:26.836Z,35.00
2019-05-22T01:39:03.593Z,28.50
2019-05-22T01:41:34.169Z,35.97
2019-05-22T01:44:07.048Z,32.87
2019-05-22T01:46:40.109Z,40.07
2019-05-22T01:49:13.354Z,34.87
2019-05-22T01:51:43.040Z,34.83
2019-05-22T01:54:12.777Z,42.67
2019-05-22T01:56:42.992Z,31.77
2019-05-22T01:59:13.819Z,50.37
2019-05-22T02:01:45.381Z,29.37
2019-05-22T02:04:16.913Z,44.97
2019-05-22T02:06:48.162Z,32.40
2019-05-22T02:09:28.872Z,35.73
2019-05-22T02:12:07.738Z,33.93
2019-05-22T02:14:41.471Z,42.50
2019-05-22T02:17:12.199Z,41.00
2019-05-22T02:19:42.090Z,27.77
2019-05-22T02:22:13.218Z,48.30
2019-05-22T02:24:42.684Z,31.67
2019-05-22T02:27:13.921Z,32.73
2019-05-22T02:29:44.829Z,34.90
2019-05-22T02:32:14.856Z,34.90
2019-05-22T02:34:44.974Z,36.60
2019-05-22T02:37:16.334Z,43.07
2019-05-22T02:39:47.371Z,37.67
2019-05-22T02:42:23.776Z,31.13
2019-05-22T02:44:53.328Z,41.37
2019-05-22T02:47:23.838Z,25.90
2019-05-22T02:49:56.117Z,36.77
2019-05-22T02:52:27.306Z,27.90
2019-05-22T02:54:57.100Z,39.47
2019-05-22T02:57:28.387Z,48.77
2019-05-22T02:59:59.206Z,24.97
2019-05-22T03:02:30.339Z,30.17
2019-05-22T03:05:11.695Z,27.23
2019-05-22T03:07:41.786Z,15.23
2019-05-22T03:10:16.234Z,14.80
2019-05-22T03:12:46.518Z,13.00
2019-05-22T03:15:18.082Z,39.30
2019-05-22T03:17:53.506Z,14.50
2019-05-22T03:20:24.265Z,14.87
2019-05-22T03:23:14.571Z,25.43
2019-05-22T03:25:44.703Z,26.93
2019-05-22T03:28:15.157Z,26.37
2019-05-22T03:30:45.491Z,13.13
2019-05-22T03:33:16.719Z,12.17
2019-05-22T03:35:48.623Z,12.53
2019-05-22T03:38:20.639Z,23.10
2019-05-22T03:40:52.487Z,12.50
2019-05-22T03:43:23.824Z,11.73
2019-05-22T03:45:56.466Z,12.70
2019-05-22T03:48:28.409Z,11.10
2019-05-22T03:51:07.129Z,10.30
2019-05-22T03:53:36.801Z,10.63
2019-05-22T03:56:06.363Z,11.10
2019-05-22T03:58:36.409Z,10.90
2019-05-22T04:01:06.890Z,11.83
2019-05-22T04:03:36.346Z,17.13
2019-05-22T04:06:07.100Z,9.80
2019-05-22T04:08:37.667Z,12.67
2019-05-22T04:11:08.843Z,12.00
2019-05-22T04:13:38.910Z,18.47
2019-05-22T04:16:10.587Z,14.93
2019-05-22T04:18:40.864Z,14.30
2019-05-22T04:21:10.300Z,11.40
2019-05-22T04:23:40.076Z,15.43
2019-05-22T04:26:12.854Z,8.07
2019-05-22T04:28:51.139Z,10.67
2019-05-22T04:31:31.666Z,11.93
2019-05-22T04:34:01.655Z,8.97
2019-05-22T04:36:31.055Z,19.20
2019-05-22T04:39:02.322Z,18.23
2019-05-22T04:41:32.601Z,12.20
2019-05-22T04:44:01.985Z,21.00
2019-05-22T04:46:31.651Z,12.97
2019-05-22T04:49:01.071Z,11.80
2019-05-22T04:51:31.200Z,19.90
2019-05-22T04:54:00.695Z,20.97
2019-05-22T04:56:30.824Z,17.23
2019-05-22T04:59:02.235Z,11.87
2019-05-22T05:01:32.520Z,14.73
2019-05-22T05:04:03.103Z,17.03
2019-05-22T05:06:35.879Z,15.87
2019-05-22T05:09:10.694Z,26.53
2019-05-22T05:11:40.590Z,14.33
2019-05-22T05:14:10.122Z,26.03
2019-05-22T05:16:39.999Z,20.40
2019-05-22T05:19:09.715Z,19.03
2019-05-22T05:21:39.890Z,20.30
2019-05-22T05:24:09.762Z,17.47
2019-05-22T05:26:39.407Z,13.30
2019-05-22T05:29:27.931Z,31.70
2019-05-22T05:31:59.098Z,16.20
2019-05-22T05:34:52.137Z,23.53
2019-05-22T05:37:23.705Z,17.37
2019-05-22T05:40:43.243Z,21.60
2019-05-22T05:43:17.671Z,12.77
2019-05-22T05:45:49.854Z,9.83
2019-05-22T05:48:31.534Z,13.13
2019-05-22T05:51:39.396Z,15.70
2019-05-22T05:54:20.573Z,18.40
2019-05-22T05:56:51.272Z,11.50
2019-05-22T05:59:25.029Z,19.30
2019-05-22T06:01:58.033Z,10.37
2019-05-22T06:04:37.193Z,12.40
2019-05-22T06:07:26.473Z,10.97
2019-05-22T06:10:33.010Z,11.57
2019-05-22T06:13:04.544Z,9.83
2019-05-22T06:16:00.609Z,10.03
2019-05-22T06:18:35.754Z,8.93
2019-05-22T06:21:07.506Z,14.63
2019-05-22T06:24:14.315Z,8.43
2019-05-22T06:26:54.809Z,7.33
2019-05-22T06:29:28.251Z,14.47
2019-05-22T06:32:43.329Z,8.93
2019-05-22T06:35:13.173Z,8.63
2019-05-22T06:37:51.463Z,11.60
2019-05-22T06:40:21.322Z,15.50
2019-05-22T06:43:25.818Z,9.07
2019-05-22T06:45:55.529Z,7.53
2019-05-22T06:48:24.989Z,15.17
2019-05-22T06:50:54.544Z,12.27
2019-05-22T06:53:24.087Z,8.43
2019-05-22T06:55:53.509Z,8.77
2019-05-22T06:58:22.940Z,10.03
2019-05-22T07:00:52.599Z,18.40
2019-05-22T07:03:22.242Z,7.87
2019-05-22T07:05:53.525Z,12.60
2019-05-22T07:08:23.508Z,9.50
2019-05-22T07:10:53.478Z,10.67
2019-05-22T07:13:23.001Z,12.00
2019-05-22T07:15:53.965Z,30.87
2019-05-22T07:18:26.737Z,10.10
2019-05-22T07:20:58.199Z,19.70
2019-05-22T07:23:29.672Z,11.63
2019-05-22T07:26:00.951Z,11.00
2019-05-22T07:28:31.471Z,11.53
2019-05-22T07:31:01.375Z,13.23
2019-05-22T07:33:30.828Z,9.73
2019-05-22T07:36:17.213Z,8.07
2019-05-22T07:38:33.529Z,13.27
2019-05-22T07:41:03.996Z,11.20
2019-05-22T07:43:33.941Z,12.80
2019-05-22T07:46:03.678Z,8.97
2019-05-22T07:48:33.378Z,14.63
2019-05-22T07:51:03.570Z,17.13
2019-05-22T07:53:33.169Z,8.67
2019-05-22T07:56:06.101Z,15.33
2019-05-22T07:58:36.166Z,10.83
2019-05-22T08:01:06.580Z,18.83
2019-05-22T08:03:37.180Z,16.90
2019-05-22T08:06:06.942Z,7.13
2019-05-22T08:08:37.238Z,6.77
2019-05-22T08:11:07.791Z,7.03
2019-05-22T08:13:37.974Z,6.80
2019-05-22T08:16:08.514Z,7.37
2019-05-22T08:18:39.473Z,8.93
2019-05-22T08:21:09.232Z,7.43
2019-05-22T08:23:38.984Z,9.03
2019-05-22T08:26:10.786Z,13.20
2019-05-22T08:28:41.170Z,8.07
2019-05-22T08:31:12.878Z,6.67
2019-05-22T08:33:42.846Z,9.30
2019-05-22T08:36:12.365Z,8.17
2019-05-22T08:38:42.802Z,7.40
2019-05-22T08:41:14.552Z,16.80
2019-05-22T08:44:15.457Z,14.03
2019-05-22T08:46:18.353Z,22.13
2019-05-22T08:48:49.285Z,12.57
2019-05-22T08:51:19.032Z,14.60
2019-05-22T08:53:49.118Z,9.50
2019-05-22T08:56:19.937Z,7.90
2019-05-22T08:58:50.235Z,17.37
2019-05-22T09:01:19.883Z,12.23
2019-05-22T09:03:49.768Z,8.77
2019-05-22T09:06:19.498Z,8.07
2019-05-22T09:08:48.937Z,6.73
2019-05-22T09:11:18.394Z,36.63
2019-05-22T09:13:47.952Z,10.20
2019-05-22T09:16:18.543Z,5.83
2019-05-22T09:18:48.324Z,6.07
2019-05-22T09:21:18.271Z,7.33
2019-05-22T09:23:48.129Z,19.60
2019-05-22T09:26:18.473Z,16.20
2019-05-22T09:28:48.403Z,9.03
2019-05-22T09:31:18.749Z,4.93
2019-05-22T09:33:48.230Z,5.10
2019-05-22T09:36:17.807Z,6.10
2019-05-22T09:38:47.508Z,13.93
2019-05-22T09:41:17.229Z,6.37
2019-05-22T09:43:57.154Z,10.73
2019-05-22T09:46:26.607Z,6.00
2019-05-22T09:48:56.858Z,12.33
2019-05-22T09:51:26.423Z,7.20
2019-05-22T09:53:56.989Z,11.50
2019-05-22T09:56:27.210Z,47.57
2019-05-22T09:58:56.634Z,12.80
2019-05-22T10:01:26.198Z,5.50
2019-05-22T10:03:55.749Z,5.70
2019-05-22T10:06:25.332Z,6.20
2019-05-22T10:08:54.781Z,7.33
2019-05-22T10:11:24.560Z,8.53
2019-05-22T10:13:54.033Z,7.50
2019-05-22T10:16:23.479Z,6.23
2019-05-22T10:18:53.709Z,6.47
2019-05-22T10:21:23.541Z,7.33
2019-05-22T10:23:53.196Z,6.33
2019-05-22T10:26:23.253Z,6.57
2019-05-22T10:28:53.107Z,6.90
2019-05-22T10:31:23.320Z,6.63
2019-05-22T10:33:52.699Z,6.63
2019-05-22T10:36:22.805Z,5.77
2019-05-22T10:38:52.199Z,8.23
2019-05-22T10:41:22.247Z,5.20
2019-05-22T10:43:52.048Z,5.93
2019-05-22T10:46:22.199Z,6.67
2019-05-22T10:48:51.609Z,11.67
2019-05-22T10:51:21.403Z,12.03
2019-05-22T10:53:50.963Z,16.07
2019-05-22T10:56:20.388Z,6.60
2019-05-22T10:58:49.801Z,5.60
2019-05-22T11:01:19.357Z,4.80
2019-05-22T11:03:48.789Z,5.97
2019-05-22T11:06:18.529Z,18.70
2019-05-22T11:08:48.068Z,6.10
2019-05-22T11:11:17.843Z,7.30
2019-05-22T11:14:00.665Z,12.53
2019-05-22T11:16:19.127Z,6.63
2019-05-22T11:18:51.281Z,7.23
2019-05-22T11:21:20.231Z,6.97
2019-05-22T11:23:52.404Z,8.23
2019-05-22T11:26:20.070Z,10.30
2019-05-22T11:28:52.025Z,7.33
2019-05-22T11:31:24.401Z,7.33
2019-05-22T11:33:53.079Z,7.60
2019-05-22T11:36:25.554Z,8.10
2019-05-22T12:14:07.835Z,5.37
2019-05-22T12:16:36.776Z,13.50
2019-05-22T12:19:06.126Z,6.37
2019-05-22T12:21:35.051Z,8.43
2019-05-22T12:24:03.758Z,5.93
2019-05-22T12:26:32.758Z,5.03
2019-05-22T12:29:01.917Z,11.23
2019-05-22T12:31:32.711Z,4.77
2019-05-22T12:34:01.929Z,6.20
2019-05-22T12:36:30.616Z,5.53
2019-05-22T12:38:59.920Z,5.37
2019-05-22T12:41:28.994Z,6.50
2019-05-22T12:43:57.710Z,7.57
2019-05-22T12:46:28.358Z,5.17
2019-05-22T12:48:57.631Z,5.03
2019-05-22T12:51:27.309Z,5.60
2019-05-22T12:53:56.232Z,7.07
2019-05-22T12:56:26.071Z,4.97
2019-05-22T12:58:56.658Z,5.83
2019-05-22T13:01:26.077Z,5.63
2019-05-22T13:03:56.948Z,6.20
2019-05-22T13:06:26.011Z,12.03
2019-05-22T13:08:54.738Z,6.10
2019-05-22T13:11:23.993Z,7.50
2019-05-22T13:13:52.657Z,5.57
2019-05-22T13:16:21.886Z,8.10
2019-05-22T13:18:51.387Z,8.63
2019-05-22T13:21:22.399Z,5.40
2019-05-22T13:23:52.426Z,6.93
2019-05-22T13:26:22.164Z,6.50
2019-05-22T13:28:50.920Z,8.00
2019-05-22T13:31:19.859Z,5.93
2019-05-22T13:33:48.666Z,6.13
2019-05-22T13:36:19.039Z,5.67
2019-05-22T13:38:48.386Z,5.57
2019-05-22T13:41:17.278Z,4.80
2019-05-22T13:43:46.489Z,5.67
2019-05-22T13:46:15.941Z,5.50
2019-05-22T13:48:44.913Z,4.50
2019-05-22T13:51:15.136Z,5.77
2019-05-22T13:53:44.506Z,4.80
2019-05-22T13:56:13.281Z,5.00
2019-05-22T13:58:43.171Z,6.30
2019-05-22T14:01:12.560Z,5.40
2019-05-22T14:03:41.494Z,5.10
2019-05-22T14:06:10.373Z,5.07
2019-05-22T14:08:39.080Z,9.03
2019-05-22T14:11:08.685Z,6.60
2019-05-22T14:13:38.355Z,5.00
2019-05-22T14:16:07.343Z,7.03
2019-05-22T14:18:36.169Z,4.90
2019-05-22T14:21:05.107Z,5.10
2019-05-22T14:23:33.987Z,6.23
2019-05-22T14:26:02.854Z,4.07
2019-05-22T14:28:33.184Z,5.17
2019-05-22T14:31:01.917Z,11.33
2019-05-22T14:33:30.840Z,5.27
2019-05-22T14:35:59.614Z,4.93
2019-05-22T14:38:29.222Z,5.83
2019-05-22T14:40:58.056Z,4.47
2019-05-22T14:43:26.787Z,5.33
2019-05-22T14:45:55.501Z,4.70
2019-05-22T14:48:24.878Z,5.20
2019-05-22T14:50:53.561Z,4.37
2019-05-22T14:53:22.452Z,4.53
2019-05-22T14:55:52.114Z,6.03
2019-05-22T14:58:20.842Z,4.47
2019-05-22T15:00:49.783Z,3.90
2019-05-22T15:03:18.683Z,5.27
2019-05-22T15:05:47.519Z,5.00
2019-05-22T15:08:16.247Z,5.07
2019-05-22T15:10:45.701Z,7.33
2019-05-22T15:13:14.676Z,6.60
2019-05-22T15:15:43.801Z,13.60
2019-05-22T15:18:12.734Z,5.83
2019-05-22T15:21:01.417Z,5.10
2019-05-22T15:23:31.299Z,5.20
2019-05-22T15:26:00.739Z,6.03
2019-05-22T15:28:29.643Z,5.00
2019-05-22T15:30:58.385Z,10.53
2019-05-22T15:33:27.877Z,6.20
2019-05-22T15:35:56.940Z,4.70
2019-05-22T15:38:30.234Z,4.90
2019-05-22T15:40:59.068Z,5.87
2019-05-22T15:43:27.961Z,5.77
2019-05-22T15:45:58.591Z,4.37
2019-05-22T15:48:30.098Z,5.67
2019-05-22T15:51:02.522Z,4.50
2019-05-22T15:53:31.779Z,4.93
2019-05-22T15:56:02.388Z,7.63
2019-05-22T15:58:32.954Z,4.70
2019-05-22T16:01:02.747Z,12.33
2019-05-22T16:03:31.957Z,4.73
2019-05-22T16:06:00.662Z,5.87
2019-05-22T16:08:30.164Z,8.83
2019-05-22T16:11:00.799Z,9.10
2019-05-22T16:13:31.647Z,5.10
2019-05-22T16:16:00.951Z,4.13
2019-05-22T16:18:31.930Z,5.00
2019-05-22T16:21:02.573Z,6.90
2019-05-22T16:23:32.628Z,4.90
2019-05-22T16:26:02.977Z,4.40
2019-05-22T16:28:35.895Z,5.23
2019-05-22T16:31:02.943Z,5.27
2019-05-22T16:33:32.099Z,4.60
2019-05-22T16:36:01.287Z,5.10
2019-05-22T16:38:30.199Z,4.53
2019-05-22T16:40:58.891Z,8.03
2019-05-22T16:43:47.258Z,5.70
2019-05-22T16:45:59.234Z,5.97
2019-05-22T16:48:29.641Z,6.50
2019-05-22T16:50:58.700Z,5.63
2019-05-22T16:53:27.515Z,5.60
2019-05-22T16:55:57.471Z,5.37
2019-05-22T16:58:26.734Z,5.30
2019-05-22T17:00:56.783Z,16.83
2019-05-22T17:03:26.775Z,10.47
2019-05-22T17:05:55.443Z,5.87
2019-05-22T17:08:24.174Z,6.47
2019-05-22T17:10:52.902Z,6.93
2019-05-22T17:13:22.067Z,8.00
2019-05-22T17:15:51.188Z,6.20
2019-05-22T17:18:19.945Z,6.90
2019-05-22T17:20:48.959Z,7.37
2019-05-22T17:23:17.573Z,7.50
2019-05-22T17:25:46.511Z,6.87
2019-05-22T17:28:17.019Z,8.03
2019-05-22T17:30:46.821Z,7.70
2019-05-22T17:33:15.786Z,7.00
2019-05-22T17:35:44.792Z,7.07
2019-05-22T17:38:13.862Z,13.10
2019-05-22T17:40:42.754Z,7.80
2019-05-22T17:43:12.070Z,9.13
2019-05-22T17:45:41.699Z,7.90
2019-05-22T17:48:11.778Z,9.33
2019-05-22T17:50:41.480Z,9.10
2019-05-22T17:53:10.348Z,7.10
2019-05-22T17:55:39.251Z,10.37
2019-05-22T17:58:08.771Z,12.53
2019-05-22T18:00:40.790Z,8.73
2019-05-22T18:03:10.043Z,8.87
2019-05-22T18:05:39.672Z,10.80
2019-05-22T18:08:09.454Z,9.00
2019-05-22T18:10:40.877Z,8.17
2019-05-22T18:13:10.799Z,9.30
2019-05-22T18:15:39.426Z,10.23
2019-05-22T18:18:09.423Z,9.43
2019-05-22T18:20:43.427Z,23.57
2019-05-22T18:23:09.277Z,9.70
2019-05-22T18:25:38.042Z,12.93
2019-05-22T18:28:07.571Z,8.43
2019-05-22T18:30:38.008Z,11.87
2019-05-22T18:33:07.584Z,12.17
2019-05-22T18:35:36.271Z,8.17
2019-05-22T18:38:05.319Z,7.87
2019-05-22T18:40:34.196Z,9.33
2019-05-22T18:43:03.012Z,10.23
2019-05-22T18:45:33.538Z,14.13
2019-05-22T18:48:02.632Z,10.90
2019-05-22T18:50:32.980Z,15.37
2019-05-22T18:53:02.380Z,11.33
2019-05-22T18:55:31.318Z,12.80
2019-05-22T18:58:00.193Z,22.60
2019-05-22T19:00:30.398Z,11.47
2019-05-22T19:02:59.086Z,17.03
2019-05-22T19:05:29.484Z,13.13
2019-05-22T19:07:58.566Z,13.30
2019-05-22T19:10:27.704Z,15.30
2019-05-22T19:12:56.618Z,17.77
2019-05-22T19:15:25.693Z,14.77
2019-05-22T19:17:54.525Z,18.23
2019-05-22T19:20:23.448Z,18.23
2019-05-22T19:23:00.442Z,19.43
2019-05-22T19:25:22.616Z,18.83
2019-05-22T19:27:51.491Z,23.00
2019-05-22T19:30:20.717Z,16.93
2019-05-22T19:32:49.605Z,15.90
2019-05-22T19:35:18.358Z,30.60
2019-05-22T19:37:47.667Z,20.83
2019-05-22T19:40:17.558Z,17.93
2019-05-22T19:42:46.269Z,19.13
2019-05-22T19:45:16.653Z,23.03
2019-05-22T19:47:50.189Z,24.47
2019-05-22T19:50:23.085Z,19.20
2019-05-22T19:52:55.677Z,20.70
2019-05-22T19:55:25.788Z,23.60
2019-05-22T19:57:55.036Z,21.13
2019-05-22T20:00:25.176Z,30.23
2019-05-22T20:02:54.405Z,30.27
2019-05-22T20:05:24.041Z,38.33
2019-05-22T20:07:53.235Z,37.00
2019-05-22T20:10:22.069Z,29.33
2019-05-22T20:12:51.325Z,38.83
2019-05-22T20:15:20.480Z,26.37
2019-05-22T20:17:49.255Z,34.30
2019-05-22T20:20:19.295Z,31.27
2019-05-22T20:22:48.076Z,38.87
2019-05-22T20:25:17.161Z,31.43
2019-05-22T20:27:45.977Z,43.37
2019-05-22T20:30:15.780Z,39.93
2019-05-22T20:32:45.030Z,29.47
2019-05-22T20:35:13.801Z,35.57
2019-05-22T20:37:45.165Z,33.67
2019-05-22T20:40:14.279Z,33.37
2019-05-22T20:42:44.367Z,29.43
2019-05-22T20:45:15.146Z,30.73
2019-05-22T20:47:46.116Z,37.50
2019-05-22T20:50:17.099Z,37.13
2019-05-22T20:52:46.002Z,33.90
2019-05-22T20:55:16.650Z,34.97
2019-05-22T20:57:45.382Z,26.33
2019-05-22T21:00:16.935Z,32.60
2019-05-22T21:02:46.574Z,31.27
2019-05-22T21:05:15.792Z,37.27
2019-05-22T21:07:49.827Z,30.10
2019-05-22T21:10:19.910Z,33.23
2019-05-22T21:12:48.608Z,29.03
2019-05-22T21:15:18.206Z,26.50
2019-05-22T21:17:47.351Z,32.40
2019-05-22T21:20:18.595Z,36.20
2019-05-22T21:22:47.229Z,27.57
2019-05-22T21:25:17.025Z,24.03
2019-05-22T21:27:45.748Z,23.63
2019-05-22T21:30:14.975Z,31.83
2019-05-22T21:32:44.207Z,28.27
2019-05-22T21:35:13.999Z,23.67
2019-05-22T21:37:42.715Z,35.40
2019-05-22T21:40:11.951Z,23.67
2019-05-22T21:42:41.812Z,31.47
2019-05-22T21:45:11.244Z,31.17
2019-05-22T21:47:41.510Z,28.10
2019-05-22T21:50:11.093Z,34.90
2019-05-22T21:52:40.163Z,37.33
2019-05-22T21:55:09.452Z,33.90
2019-05-22T21:57:38.961Z,33.93
2019-05-22T22:00:11.116Z,37.33
2019-05-22T22:02:44.350Z,32.70
2019-05-22T22:05:13.734Z,26.03
2019-05-22T22:07:43.854Z,42.23
2019-05-22T22:10:15.277Z,33.83
2019-05-22T22:12:44.374Z,38.67
2019-05-22T22:15:15.169Z,30.90
2019-05-22T22:17:43.881Z,34.10
2019-05-22T22:20:13.020Z,30.33
2019-05-22T22:22:41.750Z,35.37
2019-05-22T22:25:11.108Z,28.73
2019-05-22T22:27:40.466Z,21.10
2019-05-22T22:30:15.643Z,27.17
2019-05-22T22:32:45.409Z,29.83
2019-05-22T22:35:16.405Z,25.93
2019-05-22T22:37:46.396Z,27.00
2019-05-22T22:40:17.742Z,24.57
2019-05-22T22:42:48.736Z,56.87
2019-05-22T22:45:24.433Z,27.60
2019-05-22T22:47:54.189Z,32.33
2019-05-22T22:50:23.323Z,27.23
2019-05-22T22:52:52.017Z,22.80
2019-05-22T22:55:22.277Z,36.00
2019-05-22T22:57:52.117Z,23.30
2019-05-22T23:00:27.132Z,42.23
2019-05-22T23:02:56.901Z,34.33
2019-05-22T23:05:25.582Z,33.57
2019-05-22T23:07:54.948Z,37.50
2019-05-22T23:10:25.697Z,26.83
2019-05-22T23:12:54.957Z,38.40
2019-05-22T23:15:25.609Z,48.07
2019-05-22T23:17:55.397Z,27.57
2019-05-22T23:20:23.074Z,27.77
2019-05-22T23:22:50.473Z,32.37
2019-05-22T23:25:19.581Z,36.23
2019-05-22T23:27:48.492Z,39.80
2019-05-22T23:30:18.653Z,29.63
2019-05-22T23:32:47.528Z,33.43
2019-05-22T23:35:17.329Z,28.90
2019-05-22T23:37:46.275Z,33.10
2019-05-22T23:40:19.706Z,33.77
2019-05-22T23:42:49.310Z,24.77
2019-05-22T23:45:20.381Z,25.83
2019-05-22T23:48:14.245Z,31.17
2019-05-22T23:50:44.663Z,37.73
2019-05-22T23:53:13.431Z,33.20
2019-05-22T23:55:43.011Z,43.00
2019-05-22T23:58:14.292Z,33.83
